Time;durP1;ratioP1;P1;durP2;ratioP2;P2;SDS_P1;SDS_P2;PMS_P1;PMS_P2;Temp;Humidity;BMP_temperature;BMP_pressure;BME280_temperature;BME280_humidity;BME280_pressure;Samples;Min_cycle;Max_cycle;Signal;HPM_P1;HPM_P2
2022/06/20 00:00:20;;;;;;;3.50;2.60;;;;;;;16.52;68.21;98976.56;4359163;32;35242;-77
2022/06/20 00:02:52;;;;;;;8.77;3.37;;;;;;;17.14;65.88;98980.97;4346904;32;32927;-76
2022/06/20 00:05:29;;;;;;;4.15;2.90;;;;;;;17.32;64.91;98967.94;4359785;32;33908;-77
2022/06/20 00:07:58;;;;;;;5.93;3.05;;;;;;;17.13;65.21;98963.47;4346526;32;35999;-82
2022/06/20 00:10:28;;;;;;;4.65;2.83;;;;;;;17.12;65.29;98969.69;4361521;32;34565;-76
2022/06/20 00:12:57;;;;;;;6.30;3.20;;;;;;;17.15;65.16;98968.66;4345242;32;32861;-77
2022/06/20 00:15:26;;;;;;;4.68;2.97;;;;;;;16.87;66.78;98964.59;4361599;32;33987;-77
2022/06/20 00:17:55;;;;;;;5.30;3.45;;;;;;;16.83;66.59;98961.25;4361147;32;35143;-77
2022/06/20 00:20:23;;;;;;;5.00;3.05;;;;;;;16.82;66.98;98953.41;4361406;32;35079;-82
2022/06/20 00:22:52;;;;;;;4.45;3.10;;;;;;;16.71;67.49;98958.25;4360988;32;33673;-76
2022/06/20 00:25:20;;;;;;;5.72;3.70;;;;;;;16.56;67.80;98947.47;4362498;32;33965;-76
2022/06/20 00:27:48;;;;;;;4.60;3.60;;;;;;;16.60;67.95;98956.91;4359859;32;35018;-77
2022/06/20 00:30:18;;;;;;;6.03;3.62;;;;;;;16.28;68.78;98948.59;4360963;32;34036;-76
2022/06/20 00:32:46;;;;;;;7.18;3.75;;;;;;;16.58;67.72;98952.66;4353964;32;227050;-76
2022/06/20 00:35:14;;;;;;;4.45;3.55;;;;;;;16.77;66.95;98950.13;4361212;32;34114;-76
2022/06/20 00:37:42;;;;;;;5.43;3.80;;;;;;;16.67;67.64;98953.09;4359560;32;35970;-76
2022/06/20 00:40:23;;;;;;;6.15;4.12;;;;;;;16.65;68.12;98951.47;4361035;32;34703;-77
2022/06/20 00:42:52;;;;;;;5.15;3.92;;;;;;;16.70;67.64;98946.88;4359941;32;34486;-77
2022/06/20 00:45:41;;;;;;;4.90;3.42;;;;;;;16.59;68.16;98946.47;4361372;32;34566;-78
2022/06/20 00:48:36;;;;;;;6.55;3.97;;;;;;;16.62;68.15;98941.97;4335757;32;36778;-75
2022/06/20 00:51:32;;;;;;;6.07;3.80;;;;;;;16.53;68.49;98941.47;4359900;32;35188;-76
2022/06/20 00:54:34;;;;;;;9.25;4.87;;;;;;;15.71;71.78;98935.03;4361218;32;34352;-76
2022/06/20 00:57:32;;;;;;;7.47;4.37;;;;;;;15.78;71.35;98929.59;4361898;32;34657;-76
2022/06/20 01:00:22;;;;;;;7.78;4.30;;;;;;;15.93;70.58;98921.09;4363042;32;35847;-76
2022/06/20 01:03:17;;;;;;;9.05;4.45;;;;;;;16.23;69.71;98919.00;4361684;32;35164;-83
2022/06/20 01:06:09;;;;;;;6.40;4.47;;;;;;;16.08;69.94;98915.25;4333413;32;35340;-82
2022/06/20 01:09:05;;;;;;;6.85;4.57;;;;;;;15.95;70.53;98916.63;4334603;33;34729;-76
2022/06/20 01:11:55;;;;;;;6.82;4.50;;;;;;;16.35;69.18;98916.81;4343369;32;36903;-76
2022/06/20 01:14:41;;;;;;;6.97;4.80;;;;;;;15.81;71.00;98918.94;4364204;32;36175;-83
2022/06/20 01:17:30;;;;;;;;;;;;;;;16.25;69.50;98917.19;4362881;32;35343;-77
2022/06/20 01:20:19;;;;;;;;;;;;;;;15.89;70.86;98903.75;4362594;32;34987;-82
2022/06/20 01:23:27;;;;;;;8.10;4.70;;;;;;;15.86;71.05;98891.59;4357619;32;37067;-76
2022/06/20 01:26:28;;;;;;;6.93;4.37;;;;;;;16.03;70.96;98890.94;4358838;32;35140;-81
2022/06/20 01:29:15;;;;;;;7.03;4.55;;;;;;;15.99;71.10;98884.09;4364142;32;34572;-77
2022/06/20 01:32:01;;;;;;;;;;;;;;;15.88;71.98;98883.66;4362903;32;35714;-76
2022/06/20 01:34:48;;;;;;;4.82;4.10;;;;;;;16.06;71.09;98880.31;4363022;32;36808;-77
2022/06/20 01:37:39;;;;;;;6.93;4.47;;;;;;;15.77;72.58;98884.09;4360242;32;36098;-76
2022/06/20 01:40:26;;;;;;;7.07;4.82;;;;;;;16.02;71.83;98893.63;4360520;32;34337;-76
2022/06/20 01:43:12;;;;;;;7.55;4.65;;;;;;;16.09;71.57;98892.44;4361590;32;34647;-76
2022/06/20 01:46:00;;;;;;;6.50;4.45;;;;;;;15.61;73.04;98878.56;4361569;32;35754;-76
2022/06/20 01:48:49;;;;;;;6.15;4.55;;;;;;;15.99;71.78;98880.59;4333421;33;36107;-76
2022/06/20 01:51:56;;;;;;;5.37;4.55;;;;;;;16.20;71.53;98881.50;4335321;32;35367;-82
2022/06/20 01:54:48;;;;;;;5.62;4.20;;;;;;;16.11;71.57;98883.59;4362936;32;34917;-76
2022/06/20 01:57:37;;;;;;;7.35;5.07;;;;;;;16.12;71.76;98884.47;4362353;32;35876;-76
2022/06/20 02:00:24;;;;;;;10.35;5.40;;;;;;;15.98;72.29;98882.38;4362445;32;35259;-77
2022/06/20 02:03:14;;;;;;;7.22;4.78;;;;;;;15.71;73.90;98877.28;4361338;32;34484;-76
2022/06/20 02:06:03;;;;;;;8.07;4.82;;;;;;;15.91;73.37;98875.66;4343488;33;34620;-76
2022/06/20 02:08:52;;;;;;;6.03;4.22;;;;;;;15.76;73.71;98866.66;4332974;33;36831;-76
2022/06/20 02:11:41;;;;;;;8.07;4.82;;;;;;;15.48;74.76;98856.34;4336793;32;36005;-78
2022/06/20 02:14:35;;;;;;;8.93;5.20;;;;;;;15.49;75.52;98856.25;4363781;32;34455;-80
2022/06/20 02:17:44;;;;;;;6.12;4.43;;;;;;;15.76;74.72;98844.78;4361284;32;34604;-76
2022/06/20 02:20:38;;;;;;;5.78;4.47;;;;;;;15.77;74.04;98852.59;4363733;32;36869;-76
2022/06/20 02:23:27;;;;;;;7.00;4.53;;;;;;;15.42;76.46;98846.06;4362119;32;35146;-76
2022/06/20 02:26:14;;;;;;;7.10;4.95;;;;;;;15.70;74.98;98845.84;4361653;32;35314;-76
2022/06/20 02:29:02;;;;;;;7.37;4.87;;;;;;;15.55;75.66;98842.06;4343345;33;34586;-81
2022/06/20 02:31:55;;;;;;;7.30;4.50;;;;;;;15.73;75.07;98848.34;4336595;32;36813;-76
2022/06/20 02:34:42;;;;;;;8.23;5.05;;;;;;;15.50;75.70;98841.38;4363677;32;35302;-76
2022/06/20 02:37:28;;;;;;;6.00;4.70;;;;;;;15.70;74.64;98838.81;4362174;32;34449;-76
2022/06/20 02:40:18;;;;;;;13.52;5.00;;;;;;;15.43;76.72;98837.28;4362053;32;35728;-80
2022/06/20 02:43:10;;;;;;;6.93;4.30;;;;;;;15.27;78.00;98840.50;4352679;32;36827;-76
2022/06/20 02:45:57;;;;;;;7.10;4.75;;;;;;;15.63;76.06;98837.34;4363523;32;36153;-76
2022/06/20 02:48:47;;;;;;;8.85;4.72;;;;;;;15.83;74.52;98840.97;4360942;32;34445;-76
2022/06/20 02:51:37;;;;;;;6.45;4.43;;;;;;;15.25;77.11;98838.84;4361737;32;35534;-82
2022/06/20 02:54:27;;;;;;;6.68;4.53;;;;;;;15.61;75.81;98833.94;4332904;33;36856;-76
2022/06/20 02:57:47;;;;;;;7.57;5.20;;;;;;;15.94;74.62;98832.69;4338013;33;36107;-82
2022/06/20 03:00:45;;;;;;;6.47;4.32;;;;;;;16.04;74.51;98845.38;4342979;33;35198;-76
2022/06/20 03:03:36;;;;;;;7.82;4.53;;;;;;;16.28;72.91;98842.66;4354306;32;34733;-77
2022/06/20 03:06:33;;;;;;;7.80;4.85;;;;;;;16.13;73.39;98841.53;4362410;32;35751;-77
2022/06/20 03:09:25;;;;;;;6.57;4.60;;;;;;;15.99;73.33;98835.97;4343050;33;35110;-76
2022/06/20 03:12:12;;;;;;;6.60;4.60;;;;;;;15.88;73.72;98833.78;4339215;32;35375;-76
2022/06/20 03:14:59;;;;;;;61.53;6.97;;;;;;;15.97;74.15;98829.91;4363461;32;34437;-76
2022/06/20 03:17:48;;;;;;;10.18;4.60;;;;;;;15.32;77.33;98822.81;4350501;32;35825;-76
2022/06/20 03:20:35;;;;;;;7.47;4.82;;;;;;;15.68;75.53;98821.44;4360710;32;35249;-76
2022/06/20 03:23:31;;;;;;;5.50;4.37;;;;;;;15.94;74.68;98828.28;4360929;32;34449;-76
2022/06/20 03:26:20;;;;;;;7.95;5.55;;;;;;;15.96;74.84;98822.97;4363246;32;34716;-76
2022/06/20 03:29:12;;;;;;;6.65;4.72;;;;;;;15.83;77.39;98830.47;4360768;32;35602;-76
2022/06/20 03:31:59;;;;;;;6.55;4.53;;;;;;;15.80;78.46;98823.59;4360773;32;35131;-76
2022/06/20 03:34:45;;;;;;;;;;;;;;;16.36;75.78;98830.06;4363583;32;35371;-77
2022/06/20 03:37:32;;;;;;;7.62;4.80;;;;;;;16.42;75.83;98821.88;4359714;32;34925;-77
2022/06/20 03:40:19;;;;;;;7.30;4.57;;;;;;;16.71;74.48;98825.00;4363249;32;35878;-76
2022/06/20 03:43:07;;;;;;;7.12;4.55;;;;;;;16.80;74.93;98824.63;4361775;32;35236;-77
2022/06/20 03:46:05;;;;;;;5.97;4.22;;;;;;;16.60;76.81;98833.38;4361013;32;34455;-76
2022/06/20 03:48:53;;;;;;;;;;;;;;;16.58;75.78;98826.50;4361105;32;35566;-76
2022/06/20 03:51:56;;;;;;;10.02;4.93;;;;;;;17.44;72.56;98817.38;4362117;32;36197;-77
2022/06/20 03:54:49;;;;;;;7.07;4.22;;;;;;;17.46;73.09;98828.66;4353783;32;35161;-76
2022/06/20 03:57:35;;;;;;;7.45;4.40;;;;;;;17.92;71.49;98825.63;4345838;32;34566;-76
2022/06/20 04:00:48;;;;;;;5.28;3.97;;;;;;;17.21;76.79;98819.28;4350114;32;34594;-81
2022/06/20 04:04:00;;;;;;;6.70;4.43;;;;;;;18.30;70.31;98822.84;4360205;32;35791;-80
2022/06/20 04:07:02;;;;;;;8.02;4.70;;;;;;;18.28;71.98;98822.09;4351308;32;35242;-80
2022/06/20 04:13:10;;;;;;;5.90;3.58;;;;;;;19.02;68.22;98823.56;4345365;32;34682;-76
2022/06/20 04:16:01;;;;;;;5.90;4.35;;;;;;;18.43;72.25;98831.00;4361568;32;36754;-80
2022/06/20 04:18:51;;;;;;;5.87;4.43;;;;;;;18.67;73.14;98836.78;4356753;32;35221;-76
2022/06/20 04:21:44;;;;;;;6.03;4.00;;;;;;;18.77;73.35;98830.94;4362311;32;34493;-81
2022/06/20 04:24:38;;;;;;;17.67;5.87;;;;;;;19.31;71.07;98825.47;4360909;32;34742;-81
2022/06/20 04:27:54;;;;;;;109.80;12.10;;;;;;;20.15;68.23;98832.22;4335615;32;36813;-77
2022/06/20 04:30:46;;;;;;;91.22;11.60;;;;;;;20.46;67.87;98828.63;4362159;32;36079;-78
2022/06/20 04:33:48;;;;;;;26.12;6.65;;;;;;;20.01;70.14;98829.53;4361730;32;34349;-80
2022/06/20 04:37:12;;;;;;;13.95;5.05;;;;;;;20.43;67.19;98825.31;4364233;32;34616;-78
2022/06/20 04:40:09;;;;;;;11.02;4.82;;;;;;;20.60;68.52;98826.97;4364250;32;36886;-81
2022/06/20 04:43:21;;;;;;;6.22;4.62;;;;;;;21.83;63.23;98823.75;4361279;32;35155;-77
2022/06/20 04:46:18;;;;;;;5.82;4.30;;;;;;;22.08;62.59;98821.19;4345209;33;34414;-77
2022/06/20 04:49:10;;;;;;;7.10;4.45;;;;;;;22.45;61.27;98826.72;4346470;32;34773;-81
2022/06/20 04:51:56;;;;;;;6.93;4.60;;;;;;;22.51;61.59;98823.62;4336938;32;35813;-82
2022/06/20 04:54:43;;;;;;;7.57;4.18;;;;;;;21.78;63.19;98832.03;4363245;32;35241;-81
2022/06/20 04:57:31;;;;;;;5.93;4.07;;;;;;;22.74;58.37;98823.84;4362563;32;35405;-82
2022/06/20 05:00:21;;;;;;;8.35;4.40;;;;;;;22.92;57.34;98824.38;4362906;32;34676;-79
2022/06/20 05:03:12;;;;;;;6.35;4.12;;;;;;;23.59;55.88;98820.56;4362619;32;35799;-81
2022/06/20 05:05:59;;;;;;;8.30;4.80;;;;;;;23.64;55.66;98821.06;4362750;32;36139;-83
2022/06/20 05:08:50;;;;;;;11.27;5.10;;;;;;;23.57;55.38;98818.00;4362520;32;34461;-81
2022/06/20 05:11:41;;;;;;;6.95;4.35;;;;;;;24.12;57.29;98821.06;4362138;32;35593;-79
2022/06/20 05:14:52;;;;;;;6.62;4.43;;;;;;;24.84;51.87;98824.56;4349667;32;35856;-77
2022/06/20 05:17:40;;;;;;;7.60;4.12;;;;;;;25.47;50.34;98824.94;4361472;32;35241;-77
2022/06/20 05:20:33;;;;;;;9.40;5.78;;;;;;;24.94;52.12;98828.19;4361612;32;35327;-77
2022/06/20 05:23:39;;;;;;;11.50;4.70;;;;;;;25.03;52.08;98831.97;4361433;32;34616;-79
2022/06/20 05:26:29;;;;;;;7.83;4.97;;;;;;;25.91;48.85;98834.63;4363796;32;35888;-77
2022/06/20 05:29:31;;;;;;;8.73;4.12;;;;;;;26.08;49.79;98835.06;4334178;33;35268;-77
2022/06/20 05:32:28;;;;;;;7.87;3.70;;;;;;;26.73;48.16;98838.50;4352925;32;34468;-80
2022/06/20 05:35:21;;;;;;;9.18;3.78;;;;;;;25.83;50.48;98836.22;4363717;32;34669;-80
2022/06/20 05:37:55;;;;;;;8.02;5.93;;;;;;;26.51;47.60;98836.81;4360804;32;35127;-80
2022/06/20 05:40:26;;;;;;;6.43;4.10;;;;;;;26.79;48.71;98838.00;4363806;32;34736;-80
2022/06/20 05:42:55;;;;;;;7.47;4.57;;;;;;;27.13;46.68;98847.59;4361672;32;34430;-80
2022/06/20 05:45:24;;;;;;;7.70;4.10;;;;;;;26.22;47.50;98847.25;4362374;32;33913;-80
2022/06/20 05:47:58;;;;;;;7.25;4.07;;;;;;;26.33;48.02;98844.56;4354697;32;35048;-79
2022/06/20 05:50:43;;;;;;;9.68;4.30;;;;;;;26.13;50.18;98838.19;4355367;32;34681;-77
2022/06/20 05:53:30;;;;;;;7.47;4.47;;;;;;;26.08;49.81;98827.06;4362402;32;34520;-77
2022/06/20 05:55:59;;;;;;;6.78;3.60;;;;;;;27.32;48.17;98836.13;4362855;32;33939;-76
2022/06/20 05:58:34;;;;;;;;;;;;;;;27.64;45.99;98846.66;4360940;32;34988;-77
2022/06/20 06:01:04;;;;;;;5.18;2.80;;;;;;;28.40;44.74;98843.34;4359531;32;34845;-76
2022/06/20 06:03:40;;;;;;;6.37;3.37;;;;;;;28.47;44.53;98847.16;4360995;32;34580;-77
2022/06/20 06:06:28;;;;;;;;;;;;;;;28.84;43.28;98850.91;4362809;32;33953;-82
2022/06/20 06:09:14;;;;;;;6.20;3.37;;;;;;;29.01;42.83;98850.13;4361401;32;36223;-82
2022/06/20 06:11:50;;;;;;;6.45;4.12;;;;;;;28.01;42.93;98847.84;4332938;33;34463;-84
2022/06/20 06:14:39;;;;;;;8.55;3.37;;;;;;;28.31;44.05;98841.53;4362618;32;34601;-84
2022/06/20 06:17:19;;;;;;;7.20;4.32;;;;;;;29.58;41.09;98839.34;4361959;32;34882;-84
2022/06/20 06:20:36;;;;;;;6.32;3.70;;;;;;;29.69;40.38;98839.12;4349983;32;34825;-79
2022/06/20 06:23:07;;;;;;;5.18;3.70;;;;;;;29.54;41.33;98839.78;4338394;32;34368;-79
2022/06/20 06:25:38;;;;;;;4.32;2.80;;;;;;;28.13;43.26;98833.34;4350388;32;33323;-79
2022/06/20 06:28:18;;;;;;;19.95;4.22;;;;;;;29.55;35.59;98831.59;4362067;32;33176;-79
2022/06/20 06:30:53;;;;;;;8.18;3.50;;;;;;;29.22;38.66;98841.91;4362162;32;35047;-77
2022/06/20 06:33:32;;;;;;;9.70;3.80;;;;;;;30.63;33.78;98834.28;4361358;32;33299;-77
2022/06/20 06:36:21;;;;;;;8.40;3.37;;;;;;;30.22;35.35;98831.28;4362519;32;33656;-77
2022/06/20 06:39:03;;;;;;;4.78;2.87;;;;;;;31.17;32.90;98832.28;4362190;32;34758;-77
2022/06/20 06:41:38;;;;;;;10.80;3.22;;;;;;;30.79;33.32;98831.69;4361010;32;35148;-77
2022/06/20 06:44:16;;;;;;;11.95;3.85;;;;;;;31.18;32.31;98830.44;4359474;32;34738;-78
2022/06/20 06:46:49;;;;;;;7.40;3.28;;;;;;;31.41;32.94;98827.16;4362600;32;34586;-77
2022/06/20 06:49:40;;;;;;;5.32;3.17;;;;;;;31.33;32.64;98830.69;4358443;32;34060;-78
2022/06/20 06:52:15;;;;;;;5.55;3.10;;;;;;;32.03;34.77;98840.28;4361521;32;35181;-79
2022/06/20 06:55:03;;;;;;;5.03;3.17;;;;;;;31.24;34.02;98837.00;4333618;33;34377;-78
2022/06/20 06:57:38;;;;;;;5.10;3.35;;;;;;;31.55;31.79;98835.50;4340412;32;33806;-79
2022/06/20 07:00:06;;;;;;;8.63;3.42;;;;;;;31.84;33.41;98828.84;4359683;32;34626;-77
2022/06/20 07:02:37;;;;;;;9.68;3.55;;;;;;;32.39;32.22;98816.59;4359791;32;35067;-77
2022/06/20 07:05:17;;;;;;;10.63;3.33;;;;;;;32.15;32.75;98820.13;4362327;32;34577;-77
2022/06/20 07:07:57;;;;;;;14.43;4.03;;;;;;;31.77;33.27;98800.91;4361924;32;33858;-78
2022/06/20 07:10:32;;;;;;;13.02;4.05;;;;;;;32.03;32.96;98807.97;4363487;32;33980;-78
2022/06/20 07:13:35;;;;;;;5.15;3.40;;;;;;;31.88;33.24;98803.25;4358876;32;35902;-77
2022/06/20 07:16:05;;;;;;;5.22;3.87;;;;;;;30.96;31.89;98799.59;4360384;32;34611;-78
2022/06/20 07:18:41;;;;;;;5.50;3.40;;;;;;;31.47;34.23;98795.06;4360851;32;33687;-78
2022/06/20 07:21:12;;;;;;;7.50;3.95;;;;;;;31.88;33.35;98797.88;4362063;32;34866;-77
2022/06/20 07:23:42;;;;;;;7.85;3.87;;;;;;;31.56;34.78;98793.28;4361080;32;35914;-78
2022/06/20 07:26:12;;;;;;;6.03;3.35;;;;;;;32.20;32.66;98795.41;4362181;32;34210;-78
2022/06/20 07:28:48;;;;;;;6.00;3.42;;;;;;;31.53;33.92;98799.81;4360889;32;33691;-79
2022/06/20 07:31:27;;;;;;;6.60;3.60;;;;;;;32.03;34.85;98802.59;4362109;32;33890;-79
2022/06/20 07:34:01;;;;;;;7.05;3.60;;;;;;;32.03;33.12;98794.50;4361592;32;36012;-80
2022/06/20 07:36:35;;;;;;;8.07;3.47;;;;;;;31.57;33.35;98800.31;4362186;32;34587;-78
2022/06/20 07:39:13;;;;;;;7.37;3.63;;;;;;;32.62;32.12;98789.00;4360676;32;34364;-78
2022/06/20 07:41:45;;;;;;;7.75;3.55;;;;;;;32.09;32.84;98788.50;4349772;32;34047;-79
2022/06/20 07:44:24;;;;;;;8.68;3.40;;;;;;;32.08;32.76;98778.72;4360546;32;35105;-78
2022/06/20 07:47:16;;;;;;;8.50;3.62;;;;;;;31.85;35.39;98776.66;4361974;32;34470;-78
2022/06/20 07:49:48;;;;;;;8.70;3.75;;;;;;;31.97;34.22;98773.66;4360569;32;33719;-79
2022/06/20 07:52:33;;;;;;;7.10;3.62;;;;;;;32.83;32.76;98780.34;4361792;32;33635;-77
2022/06/20 07:55:09;;;;;;;6.57;3.85;;;;;;;31.82;33.39;98779.69;4337408;33;37402;-78
2022/06/20 07:57:42;;;;;;;10.48;4.22;;;;;;;32.37;34.19;98777.34;4345296;32;34362;-80
2022/06/20 08:00:17;;;;;;;6.20;3.80;;;;;;;32.39;34.10;98780.75;4360574;32;34496;-78
2022/06/20 08:02:54;;;;;;;5.75;3.53;;;;;;;32.62;32.69;98776.34;4360306;32;33937;-78
2022/06/20 08:05:30;;;;;;;8.23;4.20;;;;;;;31.92;34.06;98782.22;4360773;32;35917;-78
2022/06/20 08:08:12;;;;;;;14.87;4.80;;;;;;;32.21;33.93;98771.00;4360200;32;34418;-78
2022/06/20 08:10:47;;;;;;;9.02;4.75;;;;;;;32.17;33.23;98772.31;4360734;32;33521;-78
2022/06/20 08:13:21;;;;;;;7.62;3.70;;;;;;;32.63;35.05;98769.09;4360115;32;33821;-78
2022/06/20 08:15:54;;;;;;;6.68;3.90;;;;;;;33.01;32.52;98764.75;4361563;32;35958;-78
2022/06/20 08:18:23;;;;;;;6.28;3.62;;;;;;;32.71;33.86;98765.53;4360010;32;34396;-78
2022/06/20 08:21:32;;;;;;;11.90;4.20;;;;;;;32.43;33.90;98760.50;4362601;32;33629;-78
2022/06/20 08:24:05;;;;;;;6.35;3.75;;;;;;;33.58;33.28;98765.50;4361003;32;34811;-78
2022/06/20 08:26:39;;;;;;;6.97;4.55;;;;;;;34.02;31.79;98764.03;4360111;32;35938;-78
2022/06/20 08:29:13;;;;;;;5.93;3.78;;;;;;;33.53;31.61;98757.09;4360090;32;34998;-78
2022/06/20 08:31:47;;;;;;;6.47;4.30;;;;;;;32.22;34.38;98744.88;4361323;32;34376;-81
2022/06/20 08:34:18;;;;;;;6.12;3.80;;;;;;;32.80;34.15;98753.72;4356676;32;34645;-77
2022/06/20 08:37:08;;;;;;;6.32;4.03;;;;;;;34.29;30.14;98751.81;4362442;32;35902;-78
2022/06/20 08:39:58;;;;;;;7.35;3.95;;;;;;;33.94;31.03;98751.44;4359910;32;35378;-78
2022/06/20 08:42:55;;;;;;;4.95;3.72;;;;;;;33.78;30.60;98755.94;4361288;32;33542;-78
2022/06/20 08:45:46;;;;;;;5.82;4.00;;;;;;;33.90;33.80;98755.50;4331846;33;34048;-79
2022/06/20 08:49:11;;;;;;;9.13;5.07;;;;;;;33.60;30.93;98741.84;4334693;32;34933;-80
2022/06/20 08:52:06;;;;;;;4.37;3.45;;;;;;;34.22;30.44;98742.78;4301590;33;35146;-77
2022/06/20 08:54:54;;;;;;;9.43;4.55;;;;;;;34.10;29.37;98740.50;4299216;33;33675;-78
2022/06/20 08:57:34;;;;;;;6.10;4.03;;;;;;;34.06;31.06;98744.59;4321373;33;34820;-80
2022/06/20 09:00:40;;;;;;;5.95;3.75;;;;;;;34.85;28.79;98743.31;4351668;32;35030;-80
2022/06/20 09:03:28;;;;;;;8.20;4.00;;;;;;;34.31;29.53;98736.25;4334757;32;35214;-77
2022/06/20 09:06:24;;;;;;;10.00;4.15;;;;;;;35.12;28.70;98739.94;4362251;32;33744;-78
2022/06/20 09:08:59;;;;;;;9.00;4.22;;;;;;;34.84;30.05;98737.06;4360675;32;34034;-80
2022/06/20 09:12:14;;;;;;;4.82;3.60;;;;;;;34.94;27.13;98726.81;4361900;32;36012;-78
2022/06/20 09:14:54;;;;;;;5.90;3.75;;;;;;;35.01;27.36;98724.16;4336927;32;34427;-78
2022/06/20 09:17:28;;;;;;;5.68;3.12;;;;;;;35.19;28.29;98722.91;4363901;32;34517;-78
2022/06/20 09:20:29;;;;;;;5.17;3.97;;;;;;;34.25;27.50;98709.97;4360184;32;34081;-78
2022/06/20 09:23:03;;;;;;;7.97;4.10;;;;;;;34.50;28.17;98710.56;4333564;32;35028;-80
2022/06/20 09:26:03;;;;;;;7.47;3.78;;;;;;;35.29;27.59;98708.06;4362923;32;34478;-78
2022/06/20 09:28:54;;;;;;;5.75;3.75;;;;;;;35.84;26.68;98699.47;4361441;32;34396;-79
2022/06/20 09:31:41;;;;;;;4.10;3.40;;;;;;;36.37;26.65;98697.19;4359981;32;34104;-78
2022/06/20 09:34:26;;;;;;;4.78;3.20;;;;;;;35.50;26.93;98682.87;4362565;32;35130;-78
2022/06/20 09:37:19;;;;;;;4.85;3.37;;;;;;;35.94;25.63;98686.44;4362448;32;35289;-79
2022/06/20 09:39:58;;;;;;;5.25;3.35;;;;;;;34.98;27.29;98678.56;4362710;32;33615;-78
2022/06/20 09:42:57;;;;;;;6.70;3.85;;;;;;;35.34;27.71;98672.31;4364055;32;34872;-78
2022/06/20 09:45:45;;;;;;;11.02;3.67;;;;;;;36.44;26.15;98676.41;4363575;32;34987;-78
2022/06/20 09:48:16;;;;;;;5.18;3.12;;;;;;;36.25;28.22;98674.37;4359586;32;35233;-80
2022/06/20 09:51:03;;;;;;;6.32;3.95;;;;;;;36.33;26.16;98676.94;4348872;33;34379;-79
2022/06/20 09:54:01;;;;;;;6.47;4.03;;;;;;;35.33;26.75;98675.22;4361339;32;33936;-78
2022/06/20 09:56:48;;;;;;;9.60;3.67;;;;;;;35.16;27.05;98664.63;4360681;32;34904;-79
2022/06/20 09:59:43;;;;;;;7.37;3.78;;;;;;;34.72;26.00;98665.56;4362335;32;34593;-79
2022/06/20 10:02:44;;;;;;;7.35;3.60;;;;;;;34.73;26.94;98672.63;4359502;32;35145;-78
2022/06/20 10:05:33;;;;;;;6.70;3.95;;;;;;;35.83;26.95;98666.13;4361594;32;33924;-78
2022/06/20 10:08:20;;;;;;;4.30;3.55;;;;;;;35.65;27.77;98653.03;4363871;32;35164;-79
2022/06/20 10:10:54;;;;;;;12.63;3.90;;;;;;;34.88;27.37;98657.22;4334498;33;34639;-79
2022/06/20 10:13:45;;;;;;;5.15;3.97;;;;;;;34.92;26.91;98652.25;4353874;32;34474;-78
2022/06/20 10:16:44;;;;;;;5.55;3.50;;;;;;;34.65;27.90;98653.78;4361833;32;33959;-78
2022/06/20 10:19:40;;;;;;;10.07;3.80;;;;;;;34.83;27.29;98656.09;4361165;32;35212;-78
2022/06/20 10:22:13;;;;;;;6.85;3.60;;;;;;;35.27;26.84;98642.47;4363714;32;34423;-78
2022/06/20 10:25:03;;;;;;;6.57;3.60;;;;;;;34.82;27.74;98651.72;4362285;32;34367;-79
2022/06/20 10:27:52;;;;;;;4.68;3.47;;;;;;;34.92;27.63;98647.69;4360923;32;33947;-78
2022/06/20 10:30:26;;;;;;;8.57;3.70;;;;;;;34.29;28.26;98646.41;4360778;32;35062;-78
2022/06/20 10:33:13;;;;;;;8.13;3.80;;;;;;;34.62;27.74;98637.94;4363845;32;35122;-79
2022/06/20 10:35:50;;;;;;;8.30;3.47;;;;;;;34.59;27.34;98646.41;4347481;33;34534;-78
2022/06/20 10:38:41;;;;;;;7.97;3.75;;;;;;;34.51;27.08;98626.56;4335210;32;34791;-78
2022/06/20 10:41:13;;;;;;;5.05;2.92;;;;;;;34.43;27.32;98644.75;4338667;32;34953;-77
2022/06/20 10:43:44;;;;;;;6.22;3.33;;;;;;;34.34;24.92;98644.00;4334130;33;32274;-78
2022/06/20 10:46:26;;;;;;;9.25;3.80;;;;;;;34.72;25.11;98635.81;4346204;33;34734;-76
2022/06/20 10:49:21;;;;;;;3.45;2.60;;;;;;;34.99;25.74;98628.00;4347170;33;32791;-77
2022/06/20 10:52:14;;;;;;;4.25;2.80;;;;;;;34.96;24.38;98642.72;4346767;32;35110;-79
2022/06/20 10:54:45;;;;;;;3.87;3.00;;;;;;;34.61;27.30;98633.53;4348393;33;35309;-86
2022/06/20 10:57:32;;;;;;;31.45;5.57;;;;;;;34.56;26.21;98618.72;4346812;33;34343;-85
2022/06/20 11:00:10;;;;;;;5.43;2.75;;;;;;;34.89;24.46;98625.56;4348711;32;33955;-84
2022/06/20 11:03:16;;;;;;;7.18;3.10;;;;;;;35.02;27.12;98625.75;4360434;32;35040;-82
2022/06/20 11:05:55;;;;;;;5.43;2.83;;;;;;;35.23;23.39;98611.41;4360707;32;33850;-79
2022/06/20 11:08:51;;;;;;;6.07;3.15;;;;;;;35.35;23.21;98608.19;4360683;32;33641;-79
2022/06/20 11:11:31;;;;;;;5.15;3.15;;;;;;;35.01;23.39;98602.41;4361828;32;33841;-79
2022/06/20 11:14:11;;;;;;;6.70;2.67;;;;;;;35.19;24.33;98610.09;4363312;32;35031;-80
2022/06/20 11:17:10;;;;;;;4.15;3.12;;;;;;;34.36;23.62;98604.97;4361782;32;34375;-79
2022/06/20 11:20:02;;;;;;;6.85;2.92;;;;;;;34.04;23.86;98605.28;4362228;32;33606;-79
2022/06/20 11:22:41;;;;;;;3.80;2.83;;;;;;;33.88;24.67;98601.72;4355373;32;33941;-79
2022/06/20 11:25:15;;;;;;;6.05;2.90;;;;;;;34.68;24.50;98602.00;4362035;32;36145;-78
2022/06/20 11:27:50;;;;;;;5.18;3.03;;;;;;;34.80;24.23;98605.91;4361935;32;34454;-79
2022/06/20 11:30:23;;;;;;;4.75;3.25;;;;;;;35.21;24.76;98599.09;4361901;32;34567;-79
2022/06/20 11:33:13;;;;;;;4.90;2.75;;;;;;;34.06;24.29;98611.34;4360839;32;34035;-78
2022/06/20 11:35:58;;;;;;;4.47;3.30;;;;;;;34.34;26.64;98595.34;4360401;32;34923;-79
2022/06/20 11:38:36;;;;;;;4.20;2.90;;;;;;;34.77;23.58;98595.50;4362006;32;34970;-80
2022/06/20 11:41:21;;;;;;;7.10;3.22;;;;;;;35.05;23.23;98598.31;4360390;32;33663;-79
2022/06/20 11:44:07;;;;;;;4.85;3.17;;;;;;;34.43;24.67;98609.59;4362084;32;33865;-79
2022/06/20 11:46:48;;;;;;;4.85;3.47;;;;;;;34.92;22.77;98607.09;4359192;32;35198;-78
2022/06/20 11:49:32;;;;;;;5.28;2.55;;;;;;;35.18;23.45;98597.59;4363102;32;34473;-79
2022/06/20 11:52:18;;;;;;;5.15;2.97;;;;;;;34.87;24.50;98600.59;4361633;32;34571;-80
2022/06/20 11:55:25;;;;;;;3.47;2.53;;;;;;;35.54;23.72;98602.09;4361894;32;33949;-78
2022/06/20 11:58:16;;;;;;;12.23;2.85;;;;;;;34.60;26.46;98610.25;4361615;32;35134;-79
2022/06/20 12:01:12;;;;;;;5.05;3.20;;;;;;;34.86;24.36;98610.59;4358832;32;35339;-79
2022/06/20 12:04:23;;;;;;;6.22;2.83;;;;;;;34.67;25.56;98601.16;4336145;32;33801;-79
2022/06/20 12:07:26;;;;;;;3.47;3.12;;;;;;;35.08;23.86;98592.50;4360263;32;33334;-79
2022/06/20 12:10:07;;;;;;;3.53;2.75;;;;;;;35.45;21.62;98590.56;4317684;33;34948;-83
2022/06/20 12:12:54;;;;;;;5.35;3.03;;;;;;;35.24;22.73;98585.19;4357067;32;32910;-79
2022/06/20 12:15:35;;;;;;;6.05;3.40;;;;;;;35.06;22.91;98588.31;4354290;32;33590;-83
2022/06/20 12:18:09;;;;;;;5.32;2.78;;;;;;;34.72;22.99;98581.72;4360654;32;34860;-87
2022/06/20 12:23:53;;;;;;;4.28;2.83;;;;;;;34.54;24.05;98582.09;4362533;32;34571;-78
2022/06/20 12:26:35;;;;;;;3.77;2.43;;;;;;;34.98;24.73;98572.19;4359343;32;33682;-79
2022/06/20 12:29:09;;;;;;;4.40;2.80;;;;;;;35.57;23.56;98563.81;4349118;32;34215;-77
2022/06/20 12:31:38;;;;;;;8.00;2.67;;;;;;;34.82;22.47;98571.44;4359468;32;35035;-86
2022/06/20 12:34:15;;;;;;;5.15;3.35;;;;;;;34.68;23.93;98570.41;4361035;32;35120;-77
2022/06/20 12:36:59;;;;;;;4.35;3.08;;;;;;;35.15;23.44;98559.25;4360567;32;35179;-82
2022/06/20 12:39:31;;;;;;;6.50;2.92;;;;;;;35.03;22.63;98561.63;4361752;32;33910;-86
2022/06/20 12:42:12;;;;;;;4.10;2.70;;;;;;;34.62;23.25;98560.34;4356483;32;35030;-86
2022/06/20 12:45:11;;;;;;;4.50;3.00;;;;;;;35.23;23.49;98554.56;4333149;32;34449;-85
2022/06/20 12:47:45;;;;;;;7.53;3.03;;;;;;;34.92;22.79;98550.28;4352414;32;33538;-86
2022/06/20 12:50:32;;;;;;;3.55;2.95;;;;;;;35.25;23.05;98547.09;4348049;32;34367;-86
2022/06/20 12:53:17;;;;;;;5.65;2.83;;;;;;;34.88;23.53;98543.59;4359460;32;35064;-86
2022/06/20 12:56:06;;;;;;;5.68;2.92;;;;;;;35.43;21.66;98543.09;4364490;32;35108;-84
2022/06/20 12:58:52;;;;;;;7.15;2.90;;;;;;;35.45;23.67;98549.97;4334676;33;33750;-87
2022/06/20 13:01:45;;;;;;;7.30;2.55;;;;;;;35.02;23.67;98544.56;4338498;32;33957;-88
2022/06/20 13:04:18;;;;;;;6.80;2.62;;;;;;;34.76;23.72;98545.13;4361091;32;36050;-79
2022/06/20 13:07:15;;;;;;;4.07;2.70;;;;;;;35.20;22.65;98546.84;4355562;32;35207;-86